createdAt,value
2023-03-24T00:01:27.673Z,11.90
2023-03-24T00:03:55.828Z,11.02
2023-03-24T00:06:24.082Z,14.70
2023-03-24T00:08:53.508Z,11.68
2023-03-24T00:11:21.645Z,8.50
2023-03-24T00:13:50.558Z,9.13
2023-03-24T00:16:20.042Z,7.85
2023-03-24T00:18:54.430Z,8.43
2023-03-24T00:21:27.671Z,9.35
2023-03-24T00:23:59.882Z,7.60
2023-03-24T00:26:28.747Z,9.43
2023-03-24T00:28:57.552Z,9.32
2023-03-24T00:31:26.270Z,10.65
2023-03-24T00:33:54.990Z,11.65
2023-03-24T00:36:26.427Z,13.35
2023-03-24T00:38:55.966Z,7.78
2023-03-24T00:41:27.208Z,12.43
2023-03-24T00:43:58.606Z,10.55
2023-03-24T00:46:30.233Z,9.45
2023-03-24T00:49:05.811Z,8.90
2023-03-24T00:51:37.139Z,11.70
2023-03-24T00:54:05.331Z,12.80
2023-03-24T00:56:36.356Z,11.95
2023-03-24T00:59:05.116Z,10.20
2023-03-24T01:01:35.526Z,10.63
2023-03-24T01:04:06.451Z,10.55
2023-03-24T01:06:37.197Z,11.90
2023-03-24T01:09:06.752Z,9.70
2023-03-24T01:11:38.994Z,11.13
2023-03-24T01:14:06.864Z,12.02
2023-03-24T01:16:34.845Z,10.50
2023-03-24T01:19:02.578Z,10.60
2023-03-24T01:21:32.065Z,12.02
2023-03-24T01:23:59.592Z,10.73
2023-03-24T01:26:28.315Z,9.77
2023-03-24T01:28:56.344Z,10.02
2023-03-24T01:31:24.722Z,12.98
2023-03-24T01:33:52.363Z,10.95
2023-03-24T01:36:20.349Z,13.30
2023-03-24T01:38:48.043Z,10.60
2023-03-24T01:41:16.340Z,9.98
2023-03-24T01:43:44.894Z,14.13
2023-03-24T01:46:14.977Z,11.75
2023-03-24T01:48:56.075Z,12.10
2023-03-24T01:51:27.788Z,11.93
2023-03-24T01:54:01.736Z,16.75
2023-03-24T01:56:36.481Z,13.32
2023-03-24T01:59:15.893Z,15.90
2023-03-24T02:02:03.610Z,19.50
2023-03-24T02:04:45.674Z,15.45
2023-03-24T02:07:26.574Z,15.25
2023-03-24T02:09:54.231Z,20.00
2023-03-24T02:12:22.517Z,20.70
2023-03-24T02:14:50.998Z,24.73
2023-03-24T02:17:55.063Z,20.00
2023-03-24T02:23:30.822Z,14.00
2023-03-24T02:26:01.151Z,15.88
2023-03-24T02:28:37.159Z,15.80
2023-03-24T02:31:24.520Z,18.58
2023-03-24T02:34:11.643Z,17.00
2023-03-24T02:36:42.551Z,20.42
2023-03-24T02:39:29.118Z,18.30
2023-03-24T02:42:17.762Z,18.85
2023-03-24T02:44:49.133Z,20.40
2023-03-24T02:47:55.493Z,20.83
2023-03-24T02:50:51.435Z,24.30
2023-03-24T02:53:24.734Z,19.25
2023-03-24T02:56:13.726Z,22.65
2023-03-24T02:58:46.296Z,20.83
2023-03-24T03:01:36.309Z,20.70
2023-03-24T03:04:29.221Z,23.52
2023-03-24T03:06:59.383Z,19.70
2023-03-24T03:09:28.449Z,23.40
2023-03-24T03:11:58.416Z,21.35
2023-03-24T03:14:50.214Z,22.38
2023-03-24T03:17:24.041Z,19.42
2023-03-24T03:19:56.610Z,20.83
2023-03-24T03:22:29.333Z,19.38
2023-03-24T03:24:57.954Z,22.67
2023-03-24T03:27:31.612Z,26.35
2023-03-24T03:30:06.115Z,19.00
2023-03-24T03:32:39.693Z,15.32
2023-03-24T03:35:15.025Z,27.67
2023-03-24T03:38:16.342Z,21.92
2023-03-24T03:40:49.907Z,32.17
2023-03-24T03:43:21.161Z,37.13
2023-03-24T03:45:49.153Z,39.50
2023-03-24T03:48:20.799Z,30.90
2023-03-24T03:50:50.643Z,31.98
2023-03-24T03:53:24.327Z,28.27
2023-03-24T03:55:52.714Z,21.33
2023-03-24T03:58:21.352Z,29.05
2023-03-24T04:00:56.149Z,28.90
2023-03-24T04:04:21.918Z,28.10
2023-03-24T04:07:37.504Z,25.23
2023-03-24T04:11:06.684Z,23.83
2023-03-24T04:13:59.876Z,20.27
2023-03-24T04:17:12.843Z,23.17
2023-03-24T04:20:02.125Z,23.00
2023-03-24T04:23:09.885Z,19.73
2023-03-24T04:25:50.369Z,20.90
2023-03-24T04:28:20.570Z,15.80
2023-03-24T04:31:03.781Z,18.58
2023-03-24T04:33:39.250Z,23.50
2023-03-24T04:36:17.419Z,18.02
2023-03-24T04:39:05.800Z,23.35
2023-03-24T04:41:41.559Z,21.45
2023-03-24T04:44:17.973Z,22.80
2023-03-24T04:47:03.581Z,21.73
2023-03-24T04:49:32.813Z,22.00
2023-03-24T04:52:00.448Z,23.42
2023-03-24T04:54:33.627Z,23.38
2023-03-24T04:57:06.293Z,25.30
2023-03-24T04:59:40.888Z,21.83
2023-03-24T05:02:09.447Z,24.90
2023-03-24T05:04:50.080Z,17.45
2023-03-24T05:07:25.769Z,20.83
2023-03-24T05:09:58.312Z,20.35
2023-03-24T05:12:26.347Z,23.55
2023-03-24T05:15:14.184Z,20.70
2023-03-24T05:17:43.045Z,18.33
2023-03-24T05:20:13.322Z,17.55
2023-03-24T05:22:44.050Z,17.80
2023-03-24T05:25:12.793Z,16.20
2023-03-24T05:27:40.531Z,15.43
2023-03-24T05:30:27.358Z,12.02
2023-03-24T05:33:03.642Z,14.02
2023-03-24T05:35:32.308Z,16.73
2023-03-24T05:38:00.964Z,14.27
2023-03-24T05:40:29.576Z,15.32
2023-03-24T05:43:17.136Z,17.30
2023-03-24T05:45:57.181Z,15.15
2023-03-24T05:48:31.127Z,14.85
2023-03-24T05:51:18.516Z,17.52
2023-03-24T05:53:52.876Z,16.63
2023-03-24T05:56:31.506Z,16.77
2023-03-24T05:59:11.935Z,17.70
2023-03-24T06:01:59.240Z,16.40
2023-03-24T06:04:36.691Z,19.35
2023-03-24T06:07:12.165Z,18.65
2023-03-24T06:09:47.266Z,21.92
2023-03-24T06:12:17.426Z,20.27
2023-03-24T06:14:53.307Z,19.50
2023-03-24T06:17:21.714Z,28.40
2023-03-24T06:19:54.112Z,22.50
2023-03-24T06:22:40.551Z,21.70
2023-03-24T06:25:13.397Z,18.95
2023-03-24T06:30:21.308Z,22.33
2023-03-24T06:32:50.597Z,18.00
2023-03-24T06:35:19.934Z,22.35
2023-03-24T06:37:54.009Z,25.80
2023-03-24T06:40:22.804Z,20.80
2023-03-24T06:42:58.439Z,21.80
2023-03-24T06:45:27.904Z,23.00
2023-03-24T06:47:57.581Z,19.15
2023-03-24T06:50:27.574Z,15.88
2023-03-24T06:52:56.793Z,19.55
2023-03-24T06:55:25.888Z,21.35
2023-03-24T06:57:56.289Z,20.48
2023-03-24T07:00:47.725Z,18.25
2023-03-24T07:03:36.931Z,21.25
2023-03-24T07:06:23.796Z,22.38
2023-03-24T07:08:55.609Z,18.40
2023-03-24T07:11:25.573Z,21.60
2023-03-24T07:13:59.951Z,18.70
2023-03-24T07:16:29.476Z,18.95
2023-03-24T07:19:05.848Z,21.90
2023-03-24T07:21:37.491Z,18.50
2023-03-24T07:24:07.085Z,24.02
2023-03-24T07:26:44.746Z,18.42
2023-03-24T07:29:20.175Z,16.63
2023-03-24T07:32:02.640Z,16.38
2023-03-24T07:34:32.455Z,18.05
2023-03-24T07:37:01.847Z,17.60
2023-03-24T07:39:31.641Z,20.73
2023-03-24T07:41:59.787Z,19.58
2023-03-24T07:44:45.343Z,16.77
2023-03-24T07:47:13.421Z,20.67
2023-03-24T07:49:41.948Z,17.05
2023-03-24T07:52:12.367Z,15.55
2023-03-24T07:54:46.092Z,17.33
2023-03-24T07:57:32.304Z,18.67
2023-03-24T08:00:00.877Z,15.40
2023-03-24T08:02:43.575Z,12.85
2023-03-24T08:05:39.638Z,17.13
2023-03-24T08:08:25.998Z,16.17
2023-03-24T08:10:54.444Z,12.27
2023-03-24T08:13:23.090Z,14.07
2023-03-24T08:15:53.642Z,13.80
2023-03-24T08:18:22.644Z,16.55
2023-03-24T08:20:51.336Z,13.52
2023-03-24T08:23:19.058Z,10.95
2023-03-24T08:25:47.859Z,19.13
2023-03-24T08:28:17.141Z,12.30
2023-03-24T08:30:45.915Z,24.27
2023-03-24T08:33:15.794Z,15.52
2023-03-24T08:35:46.514Z,12.68
2023-03-24T08:38:18.593Z,13.82
2023-03-24T08:40:49.255Z,14.70
2023-03-24T08:43:18.076Z,10.68
2023-03-24T08:45:46.954Z,13.00
2023-03-24T08:48:14.886Z,13.15
2023-03-24T08:50:43.945Z,12.93
2023-03-24T08:53:12.780Z,13.48
2023-03-24T08:55:43.417Z,14.32
2023-03-24T08:58:15.422Z,14.25
2023-03-24T09:00:44.662Z,11.43
2023-03-24T09:03:18.912Z,10.20
2023-03-24T09:05:47.976Z,12.82
2023-03-24T09:08:17.513Z,14.20
2023-03-24T09:10:49.912Z,13.98
2023-03-24T09:13:18.866Z,12.13
2023-03-24T09:15:59.105Z,13.30
2023-03-24T09:18:27.356Z,20.73
2023-03-24T09:20:56.359Z,14.02
2023-03-24T09:23:24.400Z,14.13
2023-03-24T09:25:53.921Z,12.00
2023-03-24T09:28:22.517Z,12.85
2023-03-24T09:30:51.338Z,15.85
2023-03-24T09:33:19.707Z,15.38
2023-03-24T09:35:56.511Z,18.05
2023-03-24T09:38:27.082Z,15.35
2023-03-24T09:41:04.583Z,12.45
2023-03-24T09:43:51.329Z,16.73
2023-03-24T09:46:35.242Z,16.08
2023-03-24T09:49:05.078Z,17.30
2023-03-24T09:51:37.100Z,13.98
2023-03-24T09:54:19.915Z,13.10
2023-03-24T09:56:51.533Z,16.52
2023-03-24T09:59:33.816Z,10.07
2023-03-24T10:02:02.390Z,13.80
2023-03-24T10:04:32.398Z,13.20
2023-03-24T10:07:12.944Z,12.57
2023-03-24T10:09:40.703Z,12.05
2023-03-24T10:12:21.625Z,13.00
2023-03-24T10:15:03.993Z,10.52
2023-03-24T10:18:05.219Z,10.65
2023-03-24T10:20:44.851Z,16.25
2023-03-24T10:23:28.070Z,13.88
2023-03-24T10:26:32.373Z,12.93
2023-03-24T10:29:06.755Z,14.02
2023-03-24T10:31:36.590Z,12.90
2023-03-24T10:34:09.170Z,11.07
2023-03-24T10:36:39.617Z,10.93
2023-03-24T10:39:22.683Z,13.98
2023-03-24T10:41:55.125Z,11.65
2023-03-24T10:44:23.419Z,12.55
2023-03-24T10:46:54.827Z,11.90
2023-03-24T10:49:24.299Z,14.27
2023-03-24T10:51:57.149Z,14.98
2023-03-24T10:54:26.915Z,14.85
2023-03-24T10:57:06.450Z,13.23
2023-03-24T10:59:48.909Z,10.20
2023-03-24T11:02:19.410Z,15.15
2023-03-24T11:04:57.435Z,11.88
2023-03-24T11:07:41.232Z,12.02
2023-03-24T11:10:17.397Z,12.73
2023-03-24T11:12:58.196Z,12.27
2023-03-24T11:15:30.961Z,10.60
2023-03-24T11:18:04.179Z,9.27
2023-03-24T11:20:39.426Z,10.18
2023-03-24T11:23:12.630Z,12.80
2023-03-24T11:25:42.391Z,15.48
2023-03-24T11:28:16.310Z,31.98
2023-03-24T11:30:55.514Z,11.50
2023-03-24T11:33:35.505Z,11.57
2023-03-24T11:36:30.881Z,11.13
2023-03-24T11:39:11.954Z,15.05
2023-03-24T11:41:44.345Z,11.68
2023-03-24T11:44:17.864Z,10.80
2023-03-24T11:46:51.428Z,10.90
2023-03-24T11:49:22.990Z,19.83
2023-03-24T11:51:54.124Z,11.15
2023-03-24T11:54:26.198Z,11.82
2023-03-24T11:56:59.159Z,11.88
2023-03-24T11:59:31.771Z,10.38
2023-03-24T12:02:20.582Z,10.93
2023-03-24T12:05:06.990Z,14.68
2023-03-24T12:07:58.728Z,11.98
2023-03-24T12:10:50.074Z,11.27
2023-03-24T12:13:45.193Z,8.40
2023-03-24T12:16:34.715Z,11.10
2023-03-24T12:19:12.158Z,11.10
2023-03-24T12:22:19.031Z,11.82
2023-03-24T12:25:06.625Z,10.30
2023-03-24T12:27:57.209Z,9.90
2023-03-24T12:30:46.529Z,14.10
2023-03-24T12:33:29.497Z,10.98
2023-03-24T12:38:46.572Z,10.55
2023-03-24T12:44:28.557Z,8.48
2023-03-24T12:47:18.649Z,8.90
2023-03-24T12:50:08.143Z,12.50
2023-03-24T12:52:49.075Z,11.20
2023-03-24T12:55:51.731Z,7.43
2023-03-24T12:58:27.032Z,6.90
2023-03-24T13:01:02.713Z,8.95
2023-03-24T13:03:55.105Z,9.57
2023-03-24T13:06:34.445Z,4.90
2023-03-24T13:09:30.379Z,8.38
2023-03-24T13:12:33.838Z,6.32
2023-03-24T13:15:32.544Z,7.18
2023-03-24T13:18:09.139Z,6.30
2023-03-24T13:20:40.624Z,5.53
2023-03-24T13:23:24.955Z,6.18
2023-03-24T13:26:06.789Z,7.97
2023-03-24T13:28:44.540Z,8.35
2023-03-24T13:31:13.693Z,11.88
2023-03-24T13:33:44.775Z,10.68
2023-03-24T13:36:23.893Z,7.35
2023-03-24T13:38:55.266Z,8.35
2023-03-24T13:41:27.475Z,7.72
2023-03-24T13:44:00.707Z,6.82
2023-03-24T13:46:29.438Z,7.03
2023-03-24T13:48:59.070Z,8.25
2023-03-24T13:51:36.367Z,6.82
2023-03-24T13:54:29.296Z,6.88
2023-03-24T13:57:07.383Z,4.18
2023-03-24T13:59:38.419Z,5.65
2023-03-24T14:02:29.547Z,8.52
2023-03-24T14:05:34.615Z,7.55
2023-03-24T14:08:05.213Z,9.50
2023-03-24T14:10:48.581Z,5.55
2023-03-24T14:13:16.975Z,6.47
2023-03-24T14:15:46.907Z,7.35
2023-03-24T14:18:23.298Z,9.77
2023-03-24T14:20:57.811Z,55.22
2023-03-24T14:23:49.567Z,43.63
2023-03-24T14:26:34.347Z,9.20
2023-03-24T14:29:03.141Z,24.00
2023-03-24T14:31:33.138Z,26.48
2023-03-24T14:34:20.670Z,33.45
2023-03-24T14:37:01.700Z,64.55
2023-03-24T14:39:42.641Z,62.40
2023-03-24T14:42:49.006Z,59.28
2023-03-24T14:45:40.301Z,63.35
2023-03-24T14:48:39.624Z,43.42
2023-03-24T14:51:28.597Z,57.30
2023-03-24T14:53:59.333Z,51.83
2023-03-24T14:56:34.384Z,27.88
2023-03-24T14:59:05.807Z,27.02
2023-03-24T15:01:38.257Z,43.55
2023-03-24T15:04:08.201Z,59.13
2023-03-24T15:06:47.337Z,59.50
2023-03-24T15:09:17.543Z,66.32
2023-03-24T15:11:48.518Z,62.70
2023-03-24T15:14:23.227Z,49.75
2023-03-24T15:16:58.098Z,35.90
2023-03-24T15:19:28.338Z,39.67
2023-03-24T15:22:06.042Z,32.05
2023-03-24T15:24:36.998Z,7.75
2023-03-24T15:27:08.137Z,9.57
2023-03-24T15:29:38.923Z,10.35
2023-03-24T15:32:08.282Z,16.23
2023-03-24T15:34:40.312Z,11.93
2023-03-24T15:37:23.335Z,4.72
2023-03-24T15:39:59.207Z,6.78
2023-03-24T15:42:41.256Z,9.20
2023-03-24T15:45:38.530Z,5.35
2023-03-24T15:48:14.539Z,5.55
2023-03-24T15:50:56.389Z,5.78
2023-03-24T15:53:45.701Z,8.00
2023-03-24T15:56:13.464Z,10.73
2023-03-24T15:59:12.914Z,5.93
2023-03-24T16:01:44.073Z,8.98
2023-03-24T16:04:18.644Z,10.68
2023-03-24T16:06:52.899Z,6.32
2023-03-24T16:09:23.037Z,5.80
2023-03-24T16:11:50.896Z,7.40
2023-03-24T16:14:30.191Z,12.80
2023-03-24T16:17:01.854Z,6.10
2023-03-24T16:19:30.405Z,6.47
2023-03-24T16:21:58.487Z,11.00
2023-03-24T16:24:26.712Z,11.52
2023-03-24T16:26:54.548Z,7.07
2023-03-24T16:29:24.769Z,20.02
2023-03-24T16:31:54.235Z,13.63
2023-03-24T16:34:23.855Z,13.85
2023-03-24T16:36:53.627Z,15.15
2023-03-24T16:39:27.376Z,19.95
2023-03-24T16:41:56.841Z,16.58
2023-03-24T16:44:25.711Z,13.57
2023-03-24T16:46:55.054Z,17.77
2023-03-24T16:49:24.778Z,16.77
2023-03-24T16:51:54.311Z,17.15
2023-03-24T16:54:22.498Z,18.15
2023-03-24T16:56:50.597Z,18.48
2023-03-24T16:59:20.300Z,17.65
2023-03-24T17:01:48.955Z,20.05
2023-03-24T17:04:19.714Z,17.35
2023-03-24T17:06:53.122Z,17.42
2023-03-24T17:09:22.119Z,16.55
2023-03-24T17:11:57.659Z,13.60
2023-03-24T17:14:26.130Z,14.18
2023-03-24T17:16:54.625Z,15.90
2023-03-24T17:19:25.057Z,15.07
2023-03-24T17:22:01.966Z,13.45
2023-03-24T17:24:36.289Z,20.00
2023-03-24T17:27:05.214Z,16.27
2023-03-24T17:29:33.705Z,15.95
2023-03-24T17:32:01.315Z,14.48
2023-03-24T17:34:29.451Z,15.10
2023-03-24T17:36:57.088Z,18.25
2023-03-24T17:39:25.689Z,19.20
2023-03-24T17:41:57.965Z,17.23
2023-03-24T17:44:26.249Z,20.48
2023-03-24T17:46:54.387Z,15.15
2023-03-24T17:49:22.773Z,19.85
2023-03-24T17:51:50.743Z,20.00
2023-03-24T17:54:20.998Z,28.95
2023-03-24T17:56:49.071Z,18.38
2023-03-24T17:59:17.631Z,19.45
2023-03-24T18:01:47.989Z,15.82
2023-03-24T18:04:17.829Z,21.05
2023-03-24T18:06:46.973Z,19.58
2023-03-24T18:09:15.368Z,21.52
2023-03-24T18:11:42.840Z,18.77
2023-03-24T18:14:11.235Z,21.67
2023-03-24T18:16:41.942Z,21.58
2023-03-24T18:19:11.046Z,20.52
2023-03-24T18:21:40.116Z,21.60
2023-03-24T18:24:09.046Z,23.17
2023-03-24T18:26:37.398Z,21.10
2023-03-24T18:29:06.194Z,21.92
2023-03-24T18:31:34.778Z,23.27
2023-03-24T18:34:04.278Z,22.52
2023-03-24T18:36:32.704Z,23.60
2023-03-24T18:39:07.331Z,26.38
2023-03-24T18:41:37.332Z,29.73
2023-03-24T18:44:17.777Z,25.48
2023-03-24T18:46:46.002Z,26.70
2023-03-24T18:49:17.324Z,20.20
2023-03-24T18:51:47.195Z,22.38
2023-03-24T18:54:15.886Z,20.13
2023-03-24T18:56:43.723Z,19.27
2023-03-24T18:59:13.286Z,25.80
2023-03-24T19:01:41.348Z,19.10
2023-03-24T19:04:09.949Z,25.55
2023-03-24T19:06:42.476Z,20.40
2023-03-24T19:11:41.128Z,19.98
2023-03-24T19:14:12.296Z,16.98
2023-03-24T19:16:40.602Z,16.50
2023-03-24T19:19:10.427Z,13.68
2023-03-24T19:21:38.681Z,15.50
2023-03-24T19:24:07.487Z,17.38
2023-03-24T19:26:36.280Z,16.15
2023-03-24T19:29:04.732Z,14.80
2023-03-24T19:31:33.875Z,19.33
2023-03-24T19:34:02.502Z,13.70
2023-03-24T19:36:30.561Z,13.02
2023-03-24T19:38:58.751Z,18.58
2023-03-24T19:41:26.615Z,15.68
2023-03-24T19:43:55.031Z,14.95
2023-03-24T19:46:23.010Z,14.52
2023-03-24T19:48:51.440Z,18.00
2023-03-24T19:51:21.288Z,19.02
2023-03-24T19:53:49.596Z,14.77
2023-03-24T19:56:19.423Z,14.35
2023-03-24T19:58:47.961Z,16.27
2023-03-24T20:01:15.834Z,16.38
2023-03-24T20:03:44.579Z,17.17
2023-03-24T20:06:12.807Z,18.75
2023-03-24T20:08:41.474Z,19.45
2023-03-24T20:11:11.314Z,18.45
2023-03-24T20:13:40.086Z,19.83
2023-03-24T20:16:07.880Z,18.33
2023-03-24T20:18:36.441Z,17.70
2023-03-24T20:21:07.005Z,20.73
2023-03-24T20:23:35.773Z,21.23
2023-03-24T20:26:04.799Z,16.25
2023-03-24T20:28:33.439Z,18.92
2023-03-24T20:31:03.771Z,21.23
2023-03-24T20:33:33.397Z,16.80
2023-03-24T20:36:02.050Z,19.65
2023-03-24T20:38:31.554Z,20.08
2023-03-24T20:41:02.666Z,20.48
2023-03-24T20:43:35.776Z,20.48
2023-03-24T20:46:08.584Z,32.40
2023-03-24T20:48:37.215Z,22.25
2023-03-24T20:51:06.236Z,20.38
2023-03-24T20:53:36.983Z,19.77
2023-03-24T20:56:08.006Z,24.58
2023-03-24T20:58:41.569Z,21.45
2023-03-24T21:01:13.604Z,23.08
2023-03-24T21:03:42.233Z,22.17
2023-03-24T21:06:11.493Z,24.25
2023-03-24T21:08:43.961Z,22.88
2023-03-24T21:11:13.866Z,24.08
2023-03-24T21:13:42.354Z,21.20
2023-03-24T21:16:11.480Z,20.05
2023-03-24T21:18:42.720Z,18.95
2023-03-24T21:21:16.198Z,14.48
2023-03-24T21:23:44.743Z,14.27
2023-03-24T21:26:15.881Z,15.15
2023-03-24T21:28:46.109Z,15.75
2023-03-24T21:31:18.686Z,14.23
2023-03-24T21:36:16.059Z,11.75
2023-03-24T21:38:44.805Z,12.73
2023-03-24T21:41:13.430Z,15.75
2023-03-24T21:43:42.321Z,12.85
2023-03-24T21:46:15.378Z,14.25
2023-03-24T21:48:50.373Z,14.60
2023-03-24T21:51:20.845Z,13.32
2023-03-24T21:53:49.468Z,15.77
2023-03-24T21:56:18.103Z,12.15
2023-03-24T21:58:46.809Z,14.77
2023-03-24T22:01:15.019Z,13.60
2023-03-24T22:03:43.292Z,13.73
2023-03-24T22:06:11.452Z,14.10
2023-03-24T22:08:44.047Z,12.25
2023-03-24T22:11:15.478Z,15.45
2023-03-24T22:13:43.844Z,14.65
2023-03-24T22:16:11.859Z,13.35
2023-03-24T22:18:40.648Z,17.00
2023-03-24T22:21:13.312Z,15.50
2023-03-24T22:26:13.829Z,16.60
2023-03-24T22:28:42.595Z,17.98
2023-03-24T22:31:12.949Z,17.80
2023-03-24T22:33:42.499Z,17.20
2023-03-24T22:36:11.119Z,15.25
2023-03-24T22:38:40.028Z,16.30
2023-03-24T22:41:11.306Z,14.85
2023-03-24T22:43:40.102Z,15.32
2023-03-24T22:46:11.285Z,15.05
2023-03-24T22:48:40.359Z,13.27
2023-03-24T22:51:09.067Z,16.73
2023-03-24T22:53:36.995Z,15.02
2023-03-24T22:56:06.458Z,16.45
2023-03-24T22:58:36.086Z,16.48
2023-03-24T23:01:05.601Z,20.13
2023-03-24T23:03:34.399Z,22.52
2023-03-24T23:06:02.911Z,22.25
2023-03-24T23:08:32.715Z,26.45
2023-03-24T23:11:01.260Z,21.63
2023-03-24T23:13:30.967Z,21.98
2023-03-24T23:15:58.819Z,20.10
2023-03-24T23:18:27.216Z,22.80
2023-03-24T23:21:11.879Z,17.45
2023-03-24T23:23:41.508Z,14.63
2023-03-24T23:26:25.184Z,13.68
2023-03-24T23:28:55.230Z,15.43
2023-03-24T23:31:26.009Z,14.00
2023-03-24T23:33:58.577Z,12.43
2023-03-24T23:36:28.619Z,14.45
2023-03-24T23:38:57.579Z,11.85
2023-03-24T23:41:25.531Z,13.48
2023-03-24T23:43:55.833Z,11.00
2023-03-24T23:46:25.061Z,13.23
2023-03-24T23:48:53.912Z,12.57
2023-03-24T23:51:22.371Z,13.25
2023-03-24T23:53:51.221Z,16.17
2023-03-24T23:56:21.865Z,10.73
2023-03-24T23:58:50.247Z,16.13
